createdAt,value
2018-05-11T00:03:01.333Z,100579
2018-05-11T00:08:03.235Z,100572
2018-05-11T00:13:05.040Z,100587
2018-05-11T00:18:06.796Z,100569
2018-05-11T00:23:08.349Z,100574
2018-05-11T00:28:09.928Z,100581
2018-05-11T00:33:11.606Z,100576
2018-05-11T00:38:13.358Z,100575
2018-05-11T00:43:15.855Z,100579
2018-05-11T00:48:17.693Z,100588
2018-05-11T00:53:19.203Z,100568
2018-05-11T00:58:24.859Z,100573
2018-05-11T01:03:33.593Z,100580
2018-05-11T01:08:35.919Z,100582
2018-05-11T01:13:37.733Z,100593
2018-05-11T01:18:39.524Z,100579
2018-05-11T01:23:42.023Z,100566
2018-05-11T01:28:43.632Z,100571
2018-05-11T01:33:45.367Z,100571
2018-05-11T01:38:47.133Z,100577
2018-05-11T01:43:48.932Z,100574
2018-05-11T01:48:50.514Z,100576
2018-05-11T01:53:52.976Z,100578
2018-05-11T01:58:54.790Z,100577
2018-05-11T02:03:56.360Z,100574
2018-05-11T02:08:58.015Z,100589
2018-05-11T02:13:59.876Z,100586
2018-05-11T02:19:01.619Z,100583
2018-05-11T02:24:04.111Z,100587
2018-05-11T02:29:06.694Z,100595
2018-05-11T02:34:09.191Z,100581
2018-05-11T02:39:11.433Z,100586
2018-05-11T02:44:13.176Z,100589
2018-05-11T02:49:14.930Z,100597
2018-05-11T02:54:16.604Z,100605
2018-05-11T02:59:18.130Z,100598
2018-05-11T03:04:19.950Z,100590
2018-05-11T03:09:21.719Z,100590
2018-05-11T03:14:23.495Z,100592
2018-05-11T03:19:24.995Z,100596
2018-05-11T03:24:26.819Z,100593
2018-05-11T03:29:29.419Z,100588
2018-05-11T03:34:31.901Z,100593
2018-05-11T03:39:34.299Z,100600
2018-05-11T03:44:36.850Z,100606
2018-05-11T03:49:38.567Z,100612
2018-05-11T03:54:40.331Z,100615
2018-05-11T03:59:42.932Z,100613
2018-05-11T04:05:03.859Z,100608
2018-05-11T04:10:05.386Z,100598
2018-05-11T04:15:07.092Z,100607
2018-05-11T04:20:09.491Z,100622
2018-05-11T04:25:11.147Z,100620
2018-05-11T04:30:13.028Z,100622
2018-05-11T04:35:15.281Z,100622
2018-05-11T04:40:16.982Z,100625
2018-05-11T04:45:19.464Z,100633
2018-05-11T04:50:20.995Z,100637
2018-05-11T04:55:22.727Z,100641
2018-05-11T05:00:24.495Z,100650
2018-05-11T05:05:26.158Z,100646
2018-05-11T05:10:28.449Z,100653
2018-05-11T05:15:30.224Z,100652
2018-05-11T05:20:31.994Z,100652
2018-05-11T05:25:33.866Z,100662
2018-05-11T05:30:35.651Z,100661
2018-05-11T05:35:37.293Z,100663
2018-05-11T05:40:39.531Z,100676
2018-05-11T05:45:41.099Z,100666
2018-05-11T05:50:42.779Z,100665
2018-05-11T05:55:44.296Z,100685
2018-05-11T06:00:46.714Z,100677
2018-05-11T06:05:48.456Z,100676
2018-05-11T06:10:50.877Z,100674
2018-05-11T06:15:52.511Z,100678
2018-05-11T06:20:55.021Z,100674
2018-05-11T06:25:56.534Z,100667
2018-05-11T06:30:58.370Z,100668
2018-05-11T06:35:59.919Z,100664
2018-05-11T06:41:02.255Z,100663
2018-05-11T06:46:03.764Z,100649
2018-05-11T06:51:06.081Z,100653
2018-05-11T06:56:07.856Z,100655
2018-05-11T07:01:09.596Z,100655
2018-05-11T07:06:12.059Z,100641
2018-05-11T07:11:13.803Z,100643
2018-05-11T07:16:15.357Z,100642
2018-05-11T07:21:16.885Z,100644
2018-05-11T07:26:19.327Z,100635
2018-05-11T07:31:21.184Z,100626
2018-05-11T07:36:22.936Z,100635
2018-05-11T07:41:25.453Z,100626
2018-05-11T07:46:27.204Z,100623
2018-05-11T07:51:29.801Z,100622
2018-05-11T07:56:31.579Z,100624
2018-05-11T08:01:33.340Z,100610
2018-05-11T08:06:35.846Z,100613
2018-05-11T08:11:37.387Z,100607
2018-05-11T08:16:39.903Z,100610
2018-05-11T08:21:41.466Z,100604
2018-05-11T08:26:43.370Z,100600
2018-05-11T08:31:45.222Z,100595
2018-05-11T08:36:46.975Z,100590
2018-05-11T08:41:49.317Z,100576
2018-05-11T08:46:51.056Z,100571
2018-05-11T08:51:52.656Z,100562
2018-05-11T08:56:54.194Z,100559
2018-05-11T09:01:55.777Z,100549
2018-05-11T09:06:57.524Z,100549
2018-05-11T09:12:00.021Z,100549
2018-05-11T09:17:01.794Z,100564
2018-05-11T09:22:03.778Z,100543
2018-05-11T09:27:05.437Z,100557
2018-05-11T09:32:07.824Z,100548
2018-05-11T09:37:15.218Z,100554
2018-05-11T09:42:22.591Z,100543
2018-05-11T09:47:28.667Z,100537
2018-05-11T09:52:33.863Z,100539
2018-05-11T09:57:38.378Z,100541
2018-05-11T10:02:44.635Z,100529
2018-05-11T10:07:51.834Z,100534
2018-05-11T10:12:58.202Z,100533
2018-05-11T10:18:07.767Z,100530
2018-05-11T10:23:13.066Z,100520
2018-05-11T10:28:19.206Z,100517
2018-05-11T10:33:25.318Z,100514
2018-05-11T10:38:31.906Z,100504
2018-05-11T10:43:39.541Z,100508
2018-05-11T10:48:47.305Z,100499
2018-05-11T10:53:52.551Z,100490
2018-05-11T10:58:59.377Z,100495
2018-05-11T11:04:04.870Z,100496
2018-05-11T11:09:10.138Z,100489
2018-05-11T11:14:15.458Z,100475
2018-05-11T11:19:22.935Z,100473
2018-05-11T11:24:31.162Z,100464
2018-05-11T11:29:32.865Z,100458
2018-05-11T11:34:34.859Z,100451
2018-05-11T11:39:36.612Z,100451
2018-05-11T11:44:38.286Z,100436
2018-05-11T11:49:40.060Z,100433
2018-05-11T11:54:43.568Z,100430
2018-05-11T11:59:46.936Z,100419
2018-05-11T12:04:50.476Z,100412
2018-05-11T12:09:52.928Z,100411
2018-05-11T12:14:54.731Z,100415
2018-05-11T12:19:56.539Z,100414
2018-05-11T12:24:58.077Z,100405
2018-05-11T12:30:00.697Z,100407
2018-05-11T12:35:02.365Z,100416
2018-05-11T12:40:04.425Z,100403
2018-05-11T12:45:07.055Z,100397
2018-05-11T12:50:08.710Z,100394
2018-05-11T12:55:10.293Z,100401
2018-05-11T13:00:11.987Z,100389
2018-05-11T13:05:13.741Z,100387
2018-05-11T13:10:15.382Z,100395
2018-05-11T13:15:17.989Z,100388
2018-05-11T13:20:19.755Z,100384
2018-05-11T13:25:22.053Z,100387
2018-05-11T13:30:23.827Z,100378
2018-05-11T13:35:25.608Z,100376
2018-05-11T13:40:27.571Z,100371
2018-05-11T13:45:29.361Z,100368
2018-05-11T13:50:31.201Z,100373
2018-05-11T13:55:33.732Z,100372
2018-05-11T14:00:35.709Z,100364
2018-05-11T14:05:37.471Z,100353
2018-05-11T14:10:39.245Z,100351
2018-05-11T14:15:40.802Z,100341
2018-05-11T14:20:42.486Z,100336
2018-05-11T14:25:44.259Z,100337
2018-05-11T14:30:46.021Z,100324
2018-05-11T14:35:47.793Z,100330
2018-05-11T14:40:49.571Z,100306
2018-05-11T14:45:51.494Z,100308
2018-05-11T14:50:53.233Z,100295
2018-05-11T14:55:54.984Z,100298
2018-05-11T15:00:57.482Z,100288
2018-05-11T15:05:59.081Z,100288
2018-05-11T15:11:00.770Z,100295
2018-05-11T15:16:02.373Z,100285
2018-05-11T15:21:04.677Z,100278
2018-05-11T15:26:06.250Z,100277
2018-05-11T15:31:07.878Z,100277
2018-05-11T15:36:09.703Z,100268
2018-05-11T15:41:11.654Z,100266
2018-05-11T15:46:13.988Z,100264
2018-05-11T15:51:15.716Z,100270
2018-05-11T15:56:25.175Z,100262
2018-05-11T16:01:26.855Z,100259
2018-05-11T16:06:35.688Z,100268
2018-05-11T16:11:37.359Z,100256
2018-05-11T16:16:39.645Z,100260
2018-05-11T16:21:41.917Z,100252
2018-05-11T16:26:44.231Z,100247
2018-05-11T16:31:45.992Z,100247
2018-05-11T16:36:48.464Z,100243
2018-05-11T16:41:51.082Z,100239
2018-05-11T16:46:52.856Z,100249
2018-05-11T16:51:54.645Z,100249
2018-05-11T16:56:56.819Z,100239
2018-05-11T17:01:58.368Z,100236
2018-05-11T17:07:00.879Z,100227
2018-05-11T17:12:02.735Z,100231
2018-05-11T17:17:05.162Z,100236
2018-05-11T17:22:07.030Z,100223
2018-05-11T17:27:08.575Z,100222
2018-05-11T17:32:10.476Z,100220
2018-05-11T17:37:12.119Z,100211
2018-05-11T17:42:13.691Z,100225
2018-05-11T17:47:15.433Z,100213
2018-05-11T17:52:17.338Z,100211
2018-05-11T17:57:19.113Z,100213
2018-05-11T18:02:20.677Z,100208
2018-05-11T18:07:22.392Z,100221
2018-05-11T18:12:24.283Z,100208
2018-05-11T18:17:25.923Z,100212
2018-05-11T18:22:27.494Z,100219
2018-05-11T18:27:29.246Z,100219
2018-05-11T18:32:30.859Z,100216
2018-05-11T18:37:32.723Z,100223
2018-05-11T18:42:34.440Z,100216
2018-05-11T18:47:36.742Z,100218
2018-05-11T18:52:39.004Z,100222
2018-05-11T18:57:41.372Z,100229
2018-05-11T19:02:43.102Z,100231
2018-05-11T19:07:44.702Z,100233
2018-05-11T19:12:46.513Z,100250
2018-05-11T19:17:48.877Z,100257
2018-05-11T19:22:50.526Z,100253
2018-05-11T19:27:53.561Z,100265
2018-05-11T19:32:55.226Z,100269
2018-05-11T19:37:56.818Z,100266
2018-05-11T19:42:59.267Z,100270
2018-05-11T19:48:01.966Z,100282
2018-05-11T19:53:03.859Z,100287
2018-05-11T19:58:05.482Z,100290
2018-05-11T20:03:07.246Z,100296
2018-05-11T20:08:08.995Z,100295
2018-05-11T20:13:11.312Z,100292
2018-05-11T20:18:13.160Z,100302
2018-05-11T20:23:14.953Z,100302
2018-05-11T20:28:16.519Z,100308
2018-05-11T20:33:18.967Z,100303
2018-05-11T20:38:21.944Z,100306
2018-05-11T20:43:23.692Z,100310
2018-05-11T20:48:25.444Z,100308
2018-05-11T20:53:28.035Z,100309
2018-05-11T20:58:29.824Z,100300
2018-05-11T21:03:31.592Z,100294
2018-05-11T21:08:33.339Z,100294
2018-05-11T21:13:35.867Z,100292
2018-05-11T21:18:37.628Z,100297
2018-05-11T21:23:39.259Z,100313
2018-05-11T21:28:41.008Z,100312
2018-05-11T21:33:42.849Z,100313
2018-05-11T21:38:44.916Z,100312
2018-05-11T21:43:47.950Z,100314
2018-05-11T21:48:49.843Z,100317
2018-05-11T21:53:51.447Z,100316
2018-05-11T21:58:53.834Z,100320
2018-05-11T22:03:56.366Z,100313
2018-05-11T22:08:58.174Z,100305
2018-05-11T22:14:00.019Z,100303
2018-05-11T22:19:01.606Z,100302
2018-05-11T22:24:03.683Z,100301
2018-05-11T22:29:05.440Z,100300
2018-05-11T22:34:07.209Z,100298
2018-05-11T22:39:08.810Z,100300
2018-05-11T22:44:10.408Z,100296
2018-05-11T22:49:12.186Z,100290
2018-05-11T22:54:13.699Z,100295
2018-05-11T22:59:27.708Z,100297
2018-05-11T23:04:30.930Z,100290
2018-05-11T23:09:36.442Z,100294
2018-05-11T23:14:42.158Z,100291
2018-05-11T23:19:47.822Z,100290
2018-05-11T23:24:54.033Z,100284
2018-05-11T23:30:01.238Z,100276
2018-05-11T23:35:09.310Z,100279
2018-05-11T23:40:17.893Z,100275
2018-05-11T23:45:32.717Z,100271
2018-05-11T23:50:35.327Z,100276
2018-05-11T23:55:41.742Z,100277
